Time;durP1;ratioP1;P1;durP2;ratioP2;P2;SDS_P1;SDS_P2;PMS_P1;PMS_P2;Temp;Humidity;BMP_temperature;BMP_pressure;BME280_temperature;BME280_humidity;BME280_pressure;Samples;Min_cycle;Max_cycle;Signal;HPM_P1;HPM_P2
2022/12/20 00:01:17;;;;;;;78.07;32.50;;;;;;;-6.00;83.07;99541.84;1749906;80;21009;-73
2022/12/20 00:03:44;;;;;;;69.27;29.18;;;;;;;-6.12;82.68;99530.00;1780292;79;20962;-74
2022/12/20 00:06:13;;;;;;;76.20;32.15;;;;;;;-6.15;83.04;99536.25;1755646;81;21053;-75
2022/12/20 00:08:39;;;;;;;78.50;29.42;;;;;;;-6.18;83.01;99530.92;1755966;81;20959;-75
2022/12/20 00:11:08;;;;;;;73.78;31.77;;;;;;;-6.21;82.94;99530.72;1780828;79;21476;-75
2022/12/20 00:13:36;;;;;;;85.65;32.40;;;;;;;-6.19;83.29;99525.66;1761167;80;20994;-74
2022/12/20 00:16:13;;;;;;;79.45;31.12;;;;;;;-6.19;83.29;99523.95;1777638;79;21023;-74
2022/12/20 00:18:40;;;;;;;82.40;32.58;;;;;;;-6.19;83.08;99537.27;1713003;83;20995;-76
2022/12/20 00:21:11;;;;;;;72.05;31.23;;;;;;;-6.26;82.86;99539.86;1759372;79;21520;-76
2022/12/20 00:23:40;;;;;;;75.97;33.28;;;;;;;-6.27;83.04;99535.51;1782220;79;21069;-75
2022/12/20 00:26:13;;;;;;;83.25;32.45;;;;;;;-6.29;82.96;99538.38;1793560;79;21045;-75
2022/12/20 00:28:44;;;;;;;80.03;32.58;;;;;;;-6.36;82.48;99534.52;1761137;79;21024;-76
2022/12/20 00:31:14;;;;;;;80.17;32.78;;;;;;;-6.39;82.73;99532.62;1749289;80;21002;-75
2022/12/20 00:33:45;;;;;;;80.03;30.90;;;;;;;-6.39;82.56;99535.63;1782278;80;21013;-76
2022/12/20 00:36:13;;;;;;;78.05;32.78;;;;;;;-6.47;82.61;99532.95;1778146;79;21401;-76
2022/12/20 00:38:40;;;;;;;74.32;31.23;;;;;;;-6.54;82.38;99537.73;1774780;81;21018;-74
2022/12/20 00:41:16;;;;;;;67.60;29.77;;;;;;;-6.55;82.81;99533.76;1785988;79;21009;-74
2022/12/20 00:43:42;;;;;;;68.47;27.80;;;;;;;-6.63;82.48;99526.44;1769422;79;21398;-74
2022/12/20 00:46:11;;;;;;;69.82;29.27;;;;;;;-6.65;82.56;99524.56;1759246;81;20940;-75
2022/12/20 00:48:38;;;;;;;73.90;30.45;;;;;;;-6.64;82.85;99525.92;1771922;80;20978;-74
2022/12/20 00:51:09;;;;;;;71.92;28.75;;;;;;;-6.65;82.71;99531.88;1762045;80;20958;-74
2022/12/20 00:53:37;;;;;;;77.27;30.80;;;;;;;-6.66;82.76;99528.81;1748703;79;21374;-75
2022/12/20 00:56:05;;;;;;;74.62;28.92;;;;;;;-6.64;82.84;99532.37;1788345;79;21350;-74
2022/12/20 00:58:36;;;;;;;73.02;30.23;;;;;;;-6.71;82.17;99531.50;1782461;79;21431;-73
2022/12/20 01:01:04;;;;;;;65.50;28.52;;;;;;;-6.74;82.42;99530.00;1780106;81;20984;-75
2022/12/20 01:03:31;;;;;;;72.32;29.67;;;;;;;-6.73;82.50;99531.77;1800549;79;20962;-74
2022/12/20 01:06:01;;;;;;;68.25;29.18;;;;;;;-6.73;82.50;99527.91;1784443;79;21502;-74
2022/12/20 01:08:30;;;;;;;76.72;29.25;;;;;;;-6.73;82.42;99523.17;1774036;79;20968;-74
2022/12/20 01:11:03;;;;;;;73.78;29.95;;;;;;;-6.75;82.26;99517.91;1763367;79;22123;-75
2022/12/20 01:13:32;;;;;;;70.80;29.18;;;;;;;-6.75;82.53;99523.06;1780184;79;20977;-75
2022/12/20 01:16:18;;;;;;;61.25;28.70;;;;;;;-6.74;82.28;99518.39;1758811;79;21019;-74
2022/12/20 01:18:46;;;;;;;69.10;28.15;;;;;;;-6.77;82.38;99523.38;1757704;80;21398;-74
2022/12/20 01:21:15;;;;;;;68.07;27.85;;;;;;;-6.81;82.20;99514.94;1777897;79;21004;-74
2022/12/20 01:23:43;;;;;;;69.32;26.65;;;;;;;-6.90;82.06;99519.08;1783263;79;21021;-74
2022/12/20 01:26:14;;;;;;;70.65;26.30;;;;;;;-6.90;82.31;99515.22;1770471;79;21401;-74
2022/12/20 01:28:43;;;;;;;68.95;26.73;;;;;;;-6.88;82.47;99516.23;1763199;79;21019;-75
2022/12/20 01:31:15;;;;;;;69.12;26.70;;;;;;;-6.85;82.35;99510.38;1771570;80;20949;-74
2022/12/20 01:33:43;;;;;;;62.08;24.23;;;;;;;-6.89;82.24;99508.01;1777848;79;21348;-73
2022/12/20 01:36:16;;;;;;;61.50;25.80;;;;;;;-6.93;82.08;99509.47;1788653;79;21395;-75
2022/12/20 01:38:43;;;;;;;69.87;25.60;;;;;;;-6.98;82.42;99505.70;1785600;79;21020;-75
2022/12/20 01:41:21;;;;;;;58.75;26.07;;;;;;;-6.99;82.26;99505.63;1789048;79;20945;-75
2022/12/20 01:43:58;;;;;;;65.52;25.77;;;;;;;-7.05;81.99;99501.83;1766206;79;21030;-74
2022/12/20 01:46:28;;;;;;;58.35;25.08;;;;;;;-7.13;81.90;99491.83;1783776;79;21037;-75
2022/12/20 01:49:12;;;;;;;62.55;25.05;;;;;;;-7.17;82.33;99494.61;1754955;79;20988;-75
2022/12/20 01:52:05;;;;;;;67.03;25.12;;;;;;;-7.14;82.66;99495.20;1777633;79;21010;-76
2022/12/20 01:54:40;;;;;;;62.45;24.98;;;;;;;-7.06;82.72;99491.45;1766863;80;20997;-75
2022/12/20 01:57:34;;;;;;;55.63;24.77;;;;;;;-7.06;82.49;99489.75;1751301;80;21389;-75
2022/12/20 02:00:05;;;;;;;54.85;22.27;;;;;;;-7.02;82.56;99476.27;1760697;79;21085;-75
2022/12/20 02:02:34;;;;;;;60.78;24.85;;;;;;;-6.97;82.48;99475.30;1781768;79;20966;-74
2022/12/20 02:05:02;;;;;;;59.03;23.32;;;;;;;-7.03;82.04;99477.45;1760780;79;21004;-73
2022/12/20 02:07:32;;;;;;;56.98;23.80;;;;;;;-7.01;82.21;99481.04;1772511;79;21113;-73
2022/12/20 02:10:02;;;;;;;50.25;22.05;;;;;;;-7.02;82.24;99481.84;1765705;80;21008;-74
2022/12/20 02:12:34;;;;;;;58.75;23.60;;;;;;;-7.00;82.29;99480.24;1765336;80;21435;-74
2022/12/20 02:15:09;;;;;;;57.78;22.15;;;;;;;-7.01;82.08;99484.91;1785080;79;21014;-73
2022/12/20 02:18:10;;;;;;;58.70;23.95;;;;;;;-7.04;82.03;99484.31;1760412;79;21055;-73
2022/12/20 02:20:56;;;;;;;57.95;23.05;;;;;;;-7.05;82.08;99481.63;1767737;80;21028;-74
2022/12/20 02:23:48;;;;;;;50.88;22.15;;;;;;;-7.08;81.82;99487.48;1771542;79;20983;-74
2022/12/20 02:26:55;;;;;;;60.98;23.35;;;;;;;-7.13;81.78;99482.81;1778406;80;20957;-73
2022/12/20 02:29:36;;;;;;;59.08;23.15;;;;;;;-7.19;81.76;99473.89;1775760;80;20993;-73
2022/12/20 02:32:25;;;;;;;53.90;21.07;;;;;;;-7.22;81.93;99477.58;1775146;80;20971;-73
2022/12/20 02:34:53;;;;;;;54.33;21.95;;;;;;;-7.23;81.92;99478.76;1786206;80;20960;-74
2022/12/20 02:37:21;;;;;;;49.90;21.05;;;;;;;-7.27;81.79;99469.04;1766319;80;20997;-73
2022/12/20 02:39:48;;;;;;;52.53;21.70;;;;;;;-7.25;82.10;99471.30;1754831;79;21004;-73
2022/12/20 02:42:20;;;;;;;53.87;22.48;;;;;;;-7.24;82.04;99469.22;1776367;80;21005;-74
2022/12/20 02:47:48;;;;;;;51.48;21.57;;;;;;;-7.17;82.27;99457.25;1766868;80;20951;-75
2022/12/20 02:50:22;;;;;;;46.50;19.00;;;;;;;-7.12;82.39;99448.12;1785947;79;21014;-75
2022/12/20 02:52:51;;;;;;;46.53;19.27;;;;;;;-7.09;82.26;99459.03;1785338;79;21402;-74
2022/12/20 02:55:22;;;;;;;42.60;18.62;;;;;;;-7.09;82.13;99455.16;1759474;79;21410;-74
2022/12/20 02:58:02;;;;;;;47.38;19.50;;;;;;;-7.08;82.01;99456.94;1771926;79;21362;-74
2022/12/20 03:00:33;;;;;;;49.15;19.98;;;;;;;-7.13;81.74;99446.35;1766045;79;20978;-74
2022/12/20 03:05:48;;;;;;;42.05;19.23;;;;;;;-7.25;81.84;99448.12;1776947;80;21011;-74
2022/12/20 03:08:19;;;;;;;52.93;20.15;;;;;;;-7.24;82.02;99434.44;1723928;81;21414;-74
2022/12/20 03:10:46;;;;;;;47.17;19.30;;;;;;;-7.21;81.85;99435.55;1776303;79;21016;-74
2022/12/20 03:13:13;;;;;;;51.00;19.23;;;;;;;-7.26;81.58;99433.46;1770189;79;21005;-74
2022/12/20 03:15:42;;;;;;;46.00;18.40;;;;;;;-7.33;81.45;99427.02;1773328;79;21036;-74
2022/12/20 03:18:08;;;;;;;41.50;17.98;;;;;;;-7.34;81.70;99432.97;1760322;79;20989;-74
2022/12/20 03:20:35;;;;;;;42.50;16.75;;;;;;;-7.39;81.72;99430.48;1778870;79;20974;-74
2022/12/20 03:23:02;;;;;;;42.25;17.42;;;;;;;-7.44;81.56;99419.88;1780578;78;20993;-74
2022/12/20 03:25:29;;;;;;;43.25;17.45;;;;;;;-7.48;81.93;99419.20;1734557;82;20987;-73
2022/12/20 03:27:57;;;;;;;51.80;18.32;;;;;;;-7.52;81.55;99412.06;1699738;82;21054;-74
2022/12/20 03:30:25;;;;;;;42.62;17.52;;;;;;;-7.52;81.84;99415.51;1701166;83;20985;-75
2022/12/20 03:32:51;;;;;;;45.43;18.30;;;;;;;-7.51;81.82;99413.45;1733303;82;21397;-74
2022/12/20 03:35:18;;;;;;;40.98;17.52;;;;;;;-7.50;81.68;99416.91;1785667;79;20986;-74
2022/12/20 03:37:46;;;;;;;39.38;16.42;;;;;;;-7.53;81.55;99410.28;1789426;78;21422;-74
2022/12/20 03:40:14;;;;;;;43.45;17.15;;;;;;;-7.49;82.03;99402.84;1763476;80;20985;-74
2022/12/20 03:42:42;;;;;;;42.90;16.77;;;;;;;-7.45;81.89;99405.22;1790276;79;21372;-75
2022/12/20 03:45:09;;;;;;;44.23;17.37;;;;;;;-7.41;81.92;99408.49;1759841;80;20949;-75
2022/12/20 03:47:36;;;;;;;43.78;18.15;;;;;;;-7.46;81.69;99410.78;1772651;80;21091;-74
2022/12/20 03:50:05;;;;;;;47.88;18.87;;;;;;;-7.41;82.09;99417.51;1749646;79;20980;-74
2022/12/20 03:52:35;;;;;;;37.25;16.17;;;;;;;-7.37;82.22;99407.91;1777639;79;21695;-74
2022/12/20 03:55:03;;;;;;;40.78;16.25;;;;;;;-7.38;82.03;99403.55;1785394;79;21073;-75
2022/12/20 03:57:31;;;;;;;42.43;17.02;;;;;;;-7.36;81.92;99404.53;1791043;80;21350;-74
2022/12/20 03:59:58;;;;;;;37.17;16.97;;;;;;;-7.36;81.77;99399.80;1762343;79;21042;-75
2022/12/20 04:02:25;;;;;;;43.65;17.48;;;;;;;-7.35;81.94;99402.44;1778561;80;21429;-75
2022/12/20 04:04:52;;;;;;;43.17;17.75;;;;;;;-7.35;81.64;99408.88;1775263;79;21049;-74
2022/12/20 04:07:22;;;;;;;43.40;16.45;;;;;;;-7.34;81.90;99405.92;1744277;80;21030;-74
2022/12/20 04:09:48;;;;;;;38.33;15.88;;;;;;;-7.31;81.86;99407.42;1725916;83;21008;-75
2022/12/20 04:12:15;;;;;;;45.92;18.20;;;;;;;-7.29;81.85;99404.14;1741981;82;20911;-74
2022/12/20 04:14:42;;;;;;;43.65;16.80;;;;;;;-7.34;81.56;99405.54;1734590;82;21038;-74
2022/12/20 04:17:08;;;;;;;42.62;18.37;;;;;;;-7.39;81.32;99397.91;1738734;81;21454;-74
2022/12/20 04:19:35;;;;;;;33.33;16.05;;;;;;;-7.43;81.42;99404.94;1746168;82;21034;-74
2022/12/20 04:22:02;;;;;;;39.95;15.72;;;;;;;-7.49;81.27;99404.13;1707199;83;20970;-74
2022/12/20 04:24:31;;;;;;;38.15;16.15;;;;;;;-7.49;81.43;99397.70;1726050;82;21038;-74
2022/12/20 04:26:59;;;;;;;43.08;17.35;;;;;;;-7.47;81.67;99397.80;1715208;83;21006;-74
2022/12/20 04:29:26;;;;;;;38.67;16.65;;;;;;;-7.44;81.59;99392.83;1726332;82;21026;-74
2022/12/20 04:31:52;;;;;;;42.05;16.30;;;;;;;-7.40;81.69;99391.37;1724946;83;20979;-74
2022/12/20 04:34:20;;;;;;;41.88;16.82;;;;;;;-7.44;81.49;99400.17;1726467;82;20978;-75
2022/12/20 04:36:47;;;;;;;42.90;17.00;;;;;;;-7.44;81.70;99394.12;1723951;82;21329;-75
2022/12/20 04:39:15;;;;;;;44.33;17.10;;;;;;;-7.37;81.87;99401.47;1716078;83;21009;-75
2022/12/20 04:41:43;;;;;;;48.58;17.90;;;;;;;-7.29;81.84;99405.82;1703247;83;21061;-75
2022/12/20 04:44:11;;;;;;;41.13;17.00;;;;;;;-7.31;81.49;99400.98;1735408;82;21022;-75
2022/12/20 04:46:38;;;;;;;44.27;17.20;;;;;;;-7.33;81.40;99402.16;1726388;82;20990;-74
2022/12/20 04:49:07;;;;;;;42.48;18.25;;;;;;;-7.37;81.25;99392.45;1683328;83;21034;-75
2022/12/20 04:51:34;;;;;;;39.90;17.30;;;;;;;-7.39;81.26;99398.30;1715470;82;21050;-75
2022/12/20 04:54:00;;;;;;;38.15;16.30;;;;;;;-7.43;81.33;99390.77;1725262;82;22248;-75
2022/12/20 04:56:31;;;;;;;40.00;16.97;;;;;;;-7.46;81.26;99391.85;1713877;83;21037;-75
2022/12/20 04:59:01;;;;;;;44.77;18.48;;;;;;;-7.44;81.75;99389.88;1722885;82;21026;-75
2022/12/20 05:01:28;;;;;;;43.38;17.05;;;;;;;-7.34;81.92;99395.23;1703770;83;21491;-74
2022/12/20 05:03:55;;;;;;;39.18;17.25;;;;;;;-7.34;81.71;99390.47;1708034;82;21042;-75
2022/12/20 05:06:22;;;;;;;41.33;17.48;;;;;;;-7.32;81.65;99392.73;1732813;81;21412;-74
2022/12/20 05:08:49;;;;;;;44.20;17.55;;;;;;;-7.31;81.58;99385.11;1706233;82;21071;-75
2022/12/20 05:11:16;;;;;;;42.10;18.05;;;;;;;-7.36;81.36;99391.65;1693474;83;21046;-75
2022/12/20 05:13:43;;;;;;;47.10;19.62;;;;;;;-7.36;81.46;99385.63;1755222;80;21022;-75
2022/12/20 05:16:10;;;;;;;43.68;16.48;;;;;;;-7.37;81.32;99385.11;1775284;80;20937;-75
2022/12/20 05:18:36;;;;;;;41.63;17.42;;;;;;;-7.39;81.41;99376.02;1749440;80;21043;-74
2022/12/20 05:26:39;;;;;;;42.83;17.92;;;;;;;-7.45;81.50;99376.50;1735576;81;20999;-75
2022/12/20 05:29:07;;;;;;;41.18;18.12;;;;;;;-7.44;81.49;99378.28;1778575;79;21034;-74
2022/12/20 05:31:34;;;;;;;43.55;17.17;;;;;;;-7.40;81.59;99377.20;1714691;81;21015;-75
2022/12/20 05:34:00;;;;;;;44.27;17.60;;;;;;;-7.38;81.66;99376.89;1779056;79;21030;-75
2022/12/20 05:36:29;;;;;;;37.05;15.72;;;;;;;-7.35;81.81;99375.39;1769725;81;20963;-75
2022/12/20 05:38:56;;;;;;;35.08;16.17;;;;;;;-7.31;81.76;99374.80;1750880;81;21048;-75
2022/12/20 05:41:23;;;;;;;40.78;15.13;;;;;;;-7.26;81.91;99380.65;1777479;79;20936;-75
2022/12/20 05:43:51;;;;;;;36.88;14.80;;;;;;;-7.25;81.72;99374.70;1774485;81;20978;-75
2022/12/20 05:46:18;;;;;;;32.83;13.98;;;;;;;-7.24;81.70;99374.80;1762653;81;21437;-75
2022/12/20 05:48:49;;;;;;;32.73;13.88;;;;;;;-7.22;81.57;99369.37;1758513;79;20974;-74
2022/12/20 05:51:16;;;;;;;38.42;15.03;;;;;;;-7.23;81.45;99362.41;1777570;79;21000;-75
2022/12/20 05:53:44;;;;;;;36.00;15.50;;;;;;;-7.23;81.45;99376.58;1783261;79;20980;-75
2022/12/20 05:56:11;;;;;;;35.23;15.32;;;;;;;-7.19;81.73;99365.67;1777795;79;21024;-74
2022/12/20 05:58:39;;;;;;;39.80;15.03;;;;;;;-7.14;81.51;99367.66;1773242;80;21068;-75
2022/12/20 06:01:07;;;;;;;40.63;15.10;;;;;;;-7.14;81.42;99372.42;1693589;82;21080;-75
2022/12/20 06:03:39;;;;;;;37.88;15.05;;;;;;;-7.12;81.36;99370.83;1780387;79;21421;-75
2022/12/20 06:06:13;;;;;;;31.57;13.50;;;;;;;-7.12;81.24;99369.92;1756159;79;20985;-75
2022/12/20 06:08:39;;;;;;;39.75;15.00;;;;;;;-7.15;81.27;99374.48;1781738;79;20959;-75
2022/12/20 06:11:08;;;;;;;33.02;15.68;;;;;;;-7.12;81.49;99364.38;1790008;80;21447;-75
2022/12/20 06:13:36;;;;;;;36.00;13.72;;;;;;;-7.08;81.60;99360.30;1775420;80;21067;-75
2022/12/20 06:16:03;;;;;;;34.08;13.83;;;;;;;-7.00;81.58;99360.78;1780755;79;21041;-75
2022/12/20 06:18:30;;;;;;;36.40;14.65;;;;;;;-6.99;81.36;99361.30;1769431;80;20984;-75
2022/12/20 06:20:58;;;;;;;29.50;13.75;;;;;;;-6.98;81.44;99352.34;1786944;80;20965;-75
2022/12/20 06:23:26;;;;;;;35.78;14.28;;;;;;;-6.94;81.42;99352.17;1768383;80;21005;-75
2022/12/20 06:26:00;;;;;;;;;;;;;;;-6.95;81.25;99353.84;1768104;79;21098;-75
2022/12/20 06:28:29;;;;;;;47.43;18.05;;;;;;;-6.92;81.42;99354.05;1789153;80;20360;-75
2022/12/20 06:30:57;;;;;;;37.65;15.38;;;;;;;-6.91;81.28;99353.63;1783910;79;21421;-75
2022/12/20 06:33:28;;;;;;;41.70;16.97;;;;;;;-6.91;81.37;99367.42;1755453;79;21056;-74
2022/12/20 06:35:55;;;;;;;44.20;18.23;;;;;;;-6.82;81.52;99358.48;1784458;79;20985;-74
2022/12/20 06:38:22;;;;;;;45.83;18.57;;;;;;;-6.79;81.44;99353.11;1787455;80;21382;-74
2022/12/20 06:40:49;;;;;;;41.23;17.98;;;;;;;-6.73;81.49;99358.15;1790189;80;20958;-74
2022/12/20 06:43:16;;;;;;;46.20;18.65;;;;;;;-6.69;81.47;99361.41;1791376;80;21026;-74
2022/12/20 06:45:44;;;;;;;40.78;19.48;;;;;;;-6.66;81.59;99353.84;1780470;79;20925;-74
2022/12/20 06:48:11;;;;;;;49.38;17.60;;;;;;;-6.58;81.68;99343.99;1757327;79;21019;-74
2022/12/20 06:50:38;;;;;;;45.63;18.90;;;;;;;-6.53;81.62;99352.52;1783453;79;21012;-74
2022/12/20 06:53:06;;;;;;;50.43;20.02;;;;;;;-6.43;81.67;99353.07;1779521;79;21151;-74
2022/12/20 06:55:32;;;;;;;47.23;18.65;;;;;;;-6.38;81.59;99354.23;1788951;79;21008;-74
2022/12/20 06:57:59;;;;;;;45.08;18.30;;;;;;;-6.28;81.64;99353.08;1784749;79;21335;-75
2022/12/20 07:00:26;;;;;;;41.95;17.20;;;;;;;-6.24;81.50;99352.47;1728619;80;21332;-74
2022/12/20 07:02:53;;;;;;;47.13;18.57;;;;;;;-6.18;81.46;99350.27;1775110;80;21052;-73
2022/12/20 07:05:21;;;;;;;40.67;18.00;;;;;;;-6.12;81.42;99351.02;1765365;79;20999;-74
2022/12/20 07:07:48;;;;;;;39.38;17.17;;;;;;;-6.06;81.29;99350.49;1773586;80;21006;-75
2022/12/20 07:10:16;;;;;;;35.95;16.77;;;;;;;-6.01;81.27;99346.45;1784924;79;20976;-73
2022/12/20 07:12:43;;;;;;;42.03;16.75;;;;;;;-6.03;80.71;99350.27;1783474;80;20949;-73
2022/12/20 07:15:10;;;;;;;38.67;16.27;;;;;;;-6.03;80.74;99350.69;1784454;79;20988;-73
2022/12/20 07:17:37;;;;;;;32.80;15.05;;;;;;;-5.96;81.00;99342.45;1766541;79;20988;-73
2022/12/20 07:20:06;;;;;;;45.58;17.82;;;;;;;-5.90;81.05;99344.51;1777427;79;21419;-76
2022/12/20 07:22:33;;;;;;;41.92;18.52;;;;;;;-5.86;80.94;99347.34;1774559;79;20953;-74
2022/12/20 07:25:00;;;;;;;38.90;17.25;;;;;;;-5.85;80.36;99347.83;1774400;78;20976;-74
2022/12/20 07:27:26;;;;;;;36.48;16.77;;;;;;;-5.90;79.93;99356.13;1780206;80;21032;-75
2022/12/20 07:29:53;;;;;;;34.13;15.72;;;;;;;-5.99;79.81;99352.58;1767189;79;21004;-75
2022/12/20 07:32:19;;;;;;;40.48;17.15;;;;;;;-5.98;80.29;99347.94;1778163;79;21016;-74
2022/12/20 07:34:46;;;;;;;35.78;17.02;;;;;;;-5.92;80.23;99352.55;1769842;80;21024;-73
2022/12/20 07:37:12;;;;;;;37.85;16.15;;;;;;;-5.88;80.41;99341.60;1772785;80;20969;-73
2022/12/20 07:39:41;;;;;;;30.10;14.33;;;;;;;-5.85;80.41;99355.98;1764306;80;20949;-73
2022/12/20 07:42:11;;;;;;;34.53;14.93;;;;;;;-5.87;79.94;99352.41;1780436;78;21007;-74
2022/12/20 07:44:43;;;;;;;28.73;14.28;;;;;;;-5.86;80.08;99351.64;1782429;80;20982;-73
2022/12/20 07:47:10;;;;;;;32.40;14.15;;;;;;;-5.76;80.29;99354.33;1778134;79;20965;-74
2022/12/20 07:49:36;;;;;;;30.37;14.18;;;;;;;-5.70;80.50;99349.12;1778329;80;21009;-74
2022/12/20 07:52:05;;;;;;;26.17;13.48;;;;;;;-5.61;80.27;99352.62;1770038;79;20958;-75
2022/12/20 07:54:36;;;;;;;28.25;12.82;;;;;;;-5.64;79.48;99357.63;1778389;78;21036;-74
2022/12/20 07:57:08;;;;;;;34.85;14.65;;;;;;;-5.67;79.45;99353.95;1786311;78;21071;-74
2022/12/20 07:59:41;;;;;;;28.23;13.55;;;;;;;-5.61;79.89;99352.62;1769455;80;21433;-74
2022/12/20 08:02:12;;;;;;;31.82;15.68;;;;;;;-5.61;79.44;99351.33;1777223;79;20984;-74
2022/12/20 08:04:39;;;;;;;34.95;16.27;;;;;;;-5.57;79.71;99347.22;1781686;78;21406;-74
2022/12/20 08:07:08;;;;;;;33.50;14.60;;;;;;;-5.57;79.59;99344.64;1781037;79;21020;-74
2022/12/20 08:09:39;;;;;;;30.25;13.00;;;;;;;-5.54;79.71;99343.92;1777490;80;20954;-73
2022/12/20 08:12:08;;;;;;;29.32;11.75;;;;;;;-5.51;79.48;99346.69;1758649;79;21047;-73
2022/12/20 08:14:35;;;;;;;29.55;12.75;;;;;;;-5.51;78.93;99344.11;1764024;79;21459;-73
2022/12/20 08:17:02;;;;;;;26.42;12.75;;;;;;;-5.52;78.87;99340.62;1767999;81;20965;-74
2022/12/20 08:19:28;;;;;;;29.90;13.68;;;;;;;-5.52;79.20;99333.29;1763028;80;20990;-74
2022/12/20 08:21:55;;;;;;;30.23;14.43;;;;;;;-5.48;79.31;99336.12;1753106;79;20968;-74
2022/12/20 08:24:24;;;;;;;34.70;14.55;;;;;;;-5.44;79.29;99332.03;1746912;79;21460;-74
2022/12/20 08:26:50;;;;;;;33.10;16.15;;;;;;;-5.41;79.04;99337.77;1751680;79;21096;-74
2022/12/20 08:29:17;;;;;;;36.73;15.25;;;;;;;-5.40;79.18;99336.54;1765344;79;20938;-74
2022/12/20 08:31:44;;;;;;;43.35;17.82;;;;;;;-5.39;79.29;99337.06;1760174;79;20938;-74
2022/12/20 08:34:11;;;;;;;34.25;15.10;;;;;;;-5.34;79.42;99330.45;1767581;80;21056;-74
2022/12/20 08:36:37;;;;;;;28.73;14.00;;;;;;;-5.28;79.50;99324.70;1762685;80;20954;-75
2022/12/20 08:39:06;;;;;;;30.82;13.62;;;;;;;-5.21;79.71;99331.11;1769818;79;21411;-73
2022/12/20 08:41:36;;;;;;;28.20;13.60;;;;;;;-5.09;79.40;99324.43;1753691;79;20969;-74
2022/12/20 08:44:04;;;;;;;24.87;12.25;;;;;;;-5.00;79.64;99326.23;1767720;79;20981;-75
2022/12/20 08:46:35;;;;;;;34.65;13.30;;;;;;;-4.94;79.59;99321.38;1766567;79;20990;-73
2022/12/20 08:49:05;;;;;;;29.40;13.38;;;;;;;-4.81;79.73;99312.58;1768139;79;21044;-73
2022/12/20 08:51:32;;;;;;;27.65;13.48;;;;;;;-4.71;79.39;99313.97;1769357;80;20951;-74
2022/12/20 08:53:59;;;;;;;30.90;13.35;;;;;;;-4.62;79.54;99311.39;1771762;79;21005;-74
2022/12/20 08:56:26;;;;;;;32.67;14.35;;;;;;;-4.49;79.36;99316.80;1748535;79;21052;-75
2022/12/20 08:58:52;;;;;;;30.40;13.03;;;;;;;-4.45;79.01;99301.92;1783889;79;21050;-76
2022/12/20 09:01:21;;;;;;;30.12;13.13;;;;;;;-4.37;78.89;99300.20;1758132;79;21081;-75
2022/12/20 09:03:48;;;;;;;25.70;13.05;;;;;;;-4.28;79.13;99298.48;1778243;79;21400;-77
2022/12/20 09:06:20;;;;;;;30.02;12.73;;;;;;;-4.21;78.47;99294.50;1774386;81;20965;-76
2022/12/20 09:08:47;;;;;;;26.05;12.00;;;;;;;-4.17;78.52;99286.08;1770537;80;21088;-76
2022/12/20 09:11:22;;;;;;;37.30;13.40;;;;;;;-4.11;77.87;99276.45;1755841;80;20997;-76
2022/12/20 09:13:52;;;;;;;28.92;13.32;;;;;;;-4.06;77.50;99275.37;1752519;81;21457;-76
2022/12/20 09:16:23;;;;;;;29.00;13.03;;;;;;;-3.99;77.32;99267.98;1771728;79;21056;-75
2022/12/20 09:18:53;;;;;;;25.82;13.25;;;;;;;-3.99;76.92;99264.52;1711269;82;20975;-74
2022/12/20 09:21:21;;;;;;;29.98;13.20;;;;;;;-3.89;77.40;99262.86;1762423;80;21008;-74
2022/12/20 09:23:55;;;;;;;26.17;13.40;;;;;;;-3.78;77.50;99251.70;1758398;81;20977;-74
2022/12/20 09:26:23;;;;;;;31.80;14.37;;;;;;;-3.67;76.71;99248.33;1773248;79;21020;-73
2022/12/20 09:28:50;;;;;;;30.45;14.03;;;;;;;-3.54;76.47;99243.75;1743503;81;21208;-73
2022/12/20 09:31:24;;;;;;;30.25;13.98;;;;;;;-3.39;76.12;99238.37;1777525;79;21115;-73
2022/12/20 09:33:54;;;;;;;27.58;13.98;;;;;;;-3.23;76.79;99227.02;1761874;80;21005;-75
2022/12/20 09:36:24;;;;;;;30.70;13.68;;;;;;;-3.12;76.09;99226.21;1781243;80;20969;-74
2022/12/20 09:38:51;;;;;;;33.10;14.65;;;;;;;-2.98;76.07;99216.05;1758974;81;21031;-74
2022/12/20 09:41:32;;;;;;;32.35;15.15;;;;;;;-2.81;75.78;99208.11;1766017;79;21233;-73
2022/12/20 09:44:03;;;;;;;30.70;14.07;;;;;;;-2.70;76.24;99202.96;1772092;80;21463;-72
2022/12/20 09:46:30;;;;;;;29.63;14.25;;;;;;;-2.56;75.97;99198.38;1765735;79;21018;-73
2022/12/20 09:48:58;;;;;;;32.73;14.93;;;;;;;-2.51;74.83;99197.27;1731598;82;21075;-74
2022/12/20 09:51:50;;;;;;;34.18;16.35;;;;;;;-2.50;74.80;99192.54;1766357;79;21037;-75
2022/12/20 09:54:33;;;;;;;41.75;19.87;;;;;;;-2.48;74.80;99187.42;1770699;79;20974;-73
2022/12/20 09:57:28;;;;;;;45.63;20.02;;;;;;;-2.28;75.74;99186.97;1763523;79;21310;-73
2022/12/20 10:00:00;;;;;;;48.70;24.12;;;;;;;-2.13;75.44;99177.59;1766585;80;20977;-73
2022/12/20 10:02:26;;;;;;;63.87;27.32;;;;;;;-1.97;74.85;99170.41;1775898;79;20989;-73
2022/12/20 10:04:54;;;;;;;64.15;24.52;;;;;;;-1.88;74.97;99163.88;1760302;79;21406;-72
2022/12/20 10:07:53;;;;;;;55.30;27.02;;;;;;;-1.81;74.89;99163.71;1765929;79;21013;-72
2022/12/20 10:10:41;;;;;;;82.30;38.00;;;;;;;-1.68;74.98;99158.57;1764296;79;21009;-72
2022/12/20 10:13:50;;;;;;;90.95;43.08;;;;;;;-1.49;74.67;99154.08;1728609;80;20978;-72
2022/12/20 10:16:45;;;;;;;90.07;43.45;;;;;;;-1.42;73.78;99150.86;1768822;80;21044;-71
2022/12/20 10:19:53;;;;;;;93.67;42.40;;;;;;;-1.38;73.86;99141.05;1768388;79;20966;-73
2022/12/20 10:22:30;;;;;;;105.47;43.78;;;;;;;-1.33;74.03;99134.30;1764895;80;21012;-71
2022/12/20 10:25:22;;;;;;;90.42;41.13;;;;;;;-1.12;73.75;99133.30;1755507;80;21466;-73
2022/12/20 10:27:55;;;;;;;93.15;39.03;;;;;;;-1.01;73.55;99124.58;1769711;80;21103;-73
2022/12/20 10:30:26;;;;;;;90.05;38.50;;;;;;;-0.93;73.20;99114.44;1776511;79;21388;-73
2022/12/20 10:32:56;;;;;;;80.77;36.98;;;;;;;-0.80;73.18;99101.02;1782261;79;20926;-73
2022/12/20 10:35:30;;;;;;;79.92;36.48;;;;;;;-0.71;73.94;99103.04;1770008;79;20979;-73
2022/12/20 10:38:05;;;;;;;67.37;33.08;;;;;;;-0.47;73.57;99094.27;1707309;82;20993;-73
2022/12/20 10:40:45;;;;;;;57.23;28.35;;;;;;;-0.29;72.36;99086.16;1768485;79;21065;-73
2022/12/20 10:43:22;;;;;;;56.53;26.10;;;;;;;-0.18;71.46;99073.89;1778952;79;20984;-73
2022/12/20 10:46:05;;;;;;;59.48;27.37;;;;;;;0.00;71.46;99067.08;1772366;79;21020;-73
2022/12/20 10:48:39;;;;;;;64.07;26.47;;;;;;;0.37;71.27;99067.25;1787190;79;20984;-73
2022/12/20 10:51:20;;;;;;;54.60;26.33;;;;;;;0.85;68.76;99059.45;1770753;79;21179;-73
2022/12/20 10:54:00;;;;;;;58.30;26.87;;;;;;;1.29;70.93;99060.13;1777740;79;20965;-72
2022/12/20 10:56:37;;;;;;;52.48;27.85;;;;;;;2.09;67.42;99058.95;1767778;79;21525;-68
2022/12/20 10:59:21;;;;;;;56.30;28.27;;;;;;;2.56;65.05;99052.46;1719118;82;21459;-68
2022/12/20 11:01:50;;;;;;;79.37;39.10;;;;;;;3.25;67.02;99036.27;1762643;80;20985;-67
2022/12/20 11:04:28;;;;;;;52.67;28.60;;;;;;;4.00;65.99;99037.39;1709328;82;21046;-67
2022/12/20 11:06:55;;;;;;;52.78;26.52;;;;;;;4.60;63.32;99033.31;1764985;79;20973;-68
2022/12/20 11:09:32;;;;;;;47.67;25.27;;;;;;;4.90;58.96;99034.52;1759281;79;21405;-67
2022/12/20 11:12:15;;;;;;;45.78;24.65;;;;;;;4.80;56.82;99030.03;1766906;80;20970;-68
2022/12/20 11:14:48;;;;;;;46.73;22.98;;;;;;;5.08;58.34;99020.70;1765837;80;20998;-68
2022/12/20 11:17:32;;;;;;;34.05;20.57;;;;;;;5.64;56.75;99017.61;1763327;79;21020;-68
2022/12/20 11:20:25;;;;;;;37.70;20.05;;;;;;;5.26;56.35;99020.39;1766895;79;21021;-69
2022/12/20 11:23:17;;;;;;;41.55;21.10;;;;;;;4.66;57.58;99027.27;1730934;81;20988;-68
2022/12/20 11:26:00;;;;;;;42.75;22.73;;;;;;;4.39;55.85;99025.65;1758747;79;20942;-69
2022/12/20 11:28:58;;;;;;;45.95;23.22;;;;;;;4.74;58.35;99026.92;1769848;80;21078;-68
2022/12/20 11:32:04;;;;;;;48.87;26.55;;;;;;;5.35;57.97;99025.73;1760061;79;20993;-70
2022/12/20 11:34:45;;;;;;;47.17;25.48;;;;;;;6.03;56.61;99017.44;1767607;80;20994;-68
2022/12/20 11:37:23;;;;;;;49.08;26.70;;;;;;;5.48;54.99;99006.98;1757320;79;21032;-68
2022/12/20 11:40:30;;;;;;;50.83;27.67;;;;;;;4.47;54.62;99006.05;1769743;80;21006;-68
2022/12/20 11:43:18;;;;;;;54.95;30.10;;;;;;;3.49;56.06;99001.70;1763043;79;20996;-68
2022/12/20 11:46:18;;;;;;;54.58;29.82;;;;;;;2.83;58.38;98984.03;1760887;80;21453;-68
2022/12/20 11:48:56;;;;;;;56.90;28.67;;;;;;;2.37;59.83;98983.64;1756677;80;21060;-69
2022/12/20 11:51:50;;;;;;;53.05;25.90;;;;;;;2.16;61.27;98983.23;1757804;80;21426;-68